Latest Weather Observations for Curtin

IDW60801

Issued at 8:35 am WST Tuesday 25 November 2014 (issued every 30 minutes, with the page automatically refreshed every 10 minutes)

About weather observations | Map of weather stations | Latest weather observations for WA | Other Formats
Station Details ID: 003080 Name: CURTIN AERO Lat: -17.58 Lon: 123.83 Height: 77.5 m
Data from the previous 72 hours. | See also: Recent months at Curtin
Date/Time
WST
Temp
°C
App
Temp
°C
Dew
Point
Rel
Hum
%
Delta-T
°C
Wind Press
QNH
hPa
Press
MSL
hPa
Rain
since 9 am
mm
Dir
 
Spd
km/h
Gust
km/h
Spd
kts
Gust
kts
25/08:30am 32.9 35.9 20.8 49 8.1 W 6 11 3 6 1010.1 1009.5 0.0
25/08:00am 32.2 34.7 21.1 52 7.5 SSE 9 15 5 8 1010.0 1009.4 0.0
25/07:30am 31.4 34.8 22.7 60 6.0 SSW 9 15 5 8 1009.9 1009.3 0.0
25/07:00am 30.9 35.9 22.5 61 5.7 CALM 0 0 0 0 1009.3 1008.7 0.0
25/06:30am 30.7 34.4 22.3 61 5.7 E 6 7 3 4 1009.0 1008.4 0.0
25/06:00am 29.0 32.1 21.0 62 5.3 E 6 9 3 5 1008.8 1008.2 0.0
25/05:30am 28.4 31.0 20.4 62 5.3 E 7 11 4 6 1008.7 1008.1 0.0
25/05:00am 28.1 29.9 19.6 60 5.6 E 9 11 5 6 1008.6 1008.0 0.0
25/04:30am 28.0 29.6 20.0 61 5.2 E 11 15 6 8 1008.1 1007.5 0.0
25/04:00am 27.2 29.0 19.5 62 5.0 E 9 11 5 6 1007.5 1006.9 0.0
25/03:30am 26.9 30.0 19.5 64 4.8 WSW 2 7 1 4 1007.3 1006.7 0.0
25/03:00am 27.1 30.4 19.2 62 5.1 CALM 0 6 0 3 1006.8 1006.2 0.0
25/02:30am 27.7 29.9 19.2 60 5.5 WNW 6 7 3 4 1006.5 1005.9 0.0
25/02:00am 28.8 31.0 19.1 55 6.3 W 6 7 3 4 1006.3 1005.7 0.0
25/01:30am 29.3 31.1 19.6 56 6.3 W 9 13 5 7 1006.1 1005.5 0.0
25/01:00am 29.5 31.3 19.5 55 6.6 W 9 13 5 7 1006.4 1005.8 0.0
25/12:30am 29.8 31.4 19.2 53 6.9 W 9 11 5 6 1006.7 1006.1 0.0
25/12:00am 30.2 31.8 19.2 51 7.2 W 9 13 5 7 1007.2 1006.6 0.0
 
Date/Time
WST
Temp
°C
App
Temp
°C
Dew
Point
Rel
Hum
%
Delta-T
°C
Wind Press
QNH
hPa
Press
MSL
hPa
Rain
since 9 am
mm
Dir
 
Spd
km/h
Gust
km/h
Spd
kts
Gust
kts
24/11:30pm 30.1 32.2 20.1 55 6.6 WNW 9 17 5 9 1007.3 1006.7 0.0
24/11:00pm 30.2 32.4 20.4 55 6.5 WNW 9 15 5 8 1007.6 1007.0 0.0
24/10:30pm 30.2 32.5 20.7 56 6.3 NW 9 11 5 6 1007.8 1007.2 0.0
24/10:00pm 30.5 32.8 20.7 55 6.5 NW 9 11 5 6 1007.9 1007.3 0.0
24/09:30pm 30.5 33.0 21.0 57 6.4 NW 9 13 5 7 1007.9 1007.3 0.0
24/09:00pm 30.5 33.3 21.6 59 6.0 NW 9 13 5 7 1007.8 1007.2 0.0
24/08:30pm 30.7 33.6 21.8 59 6.0 WNW 9 13 5 7 1007.7 1007.1 0.0
24/08:00pm 31.0 33.4 20.9 55 6.8 NW 9 17 5 9 1007.5 1006.9 0.0
24/07:30pm 31.5 33.2 20.1 50 7.6 NNW 11 17 6 9 1007.0 1006.4 0.0
24/07:00pm 32.0 33.0 20.3 50 7.8 NW 15 22 8 12 1006.7 1006.1 0.0
24/06:30pm 32.6 33.9 20.8 49 7.9 NW 15 24 8 13 1006.2 1005.6 0.0
24/06:00pm 33.2 34.3 22.3 52 7.5 NW 20 35 11 19 1005.9 1005.3 0.0
24/05:30pm 33.5 34.8 21.6 49 8.1 NNW 17 30 9 16 1005.6 1005.0 0.0
24/05:00pm 33.5 34.1 21.3 48 8.3 NNW 20 26 11 14 1005.6 1005.0 0.0
24/04:30pm 35.2 34.9 19.6 40 10.4 WNW 20 30 11 16 1005.3 1004.7 0.0
24/04:00pm 36.5 36.7 17.6 32 12.3 NW 13 24 7 13 1005.0 1004.4 0.0
24/03:30pm 38.5 37.3 15.0 25 14.8 W 15 20 8 11 1004.8 1004.2 0.0
24/03:00pm 40.1 39.4 14.3 22 16.3 E 11 19 6 10 1005.0 1004.4 0.0
24/02:30pm 40.7 39.4 14.8 22 16.4 WSW 15 22 8 12 1005.2 1004.6 0.0
24/02:00pm 39.8 38.9 14.8 23 15.9 ESE 13 20 7 11 1005.5 1004.9 0.0
24/01:30pm 40.6 38.3 14.0 21 16.7 S 19 28 10 15 1005.9 1005.3 0.0
24/01:00pm 40.8 40.3 14.9 22 16.5 SSW 11 20 6 11 1006.6 1006.0 0.0
24/12:30pm 39.3 38.8 15.0 24 15.4 NNW 11 22 6 12 1007.1 1006.5 0.0
24/12:00pm 38.9 37.9 14.7 24 15.3 W 13 20 7 11 1007.8 1007.2 0.0
24/11:30am 38.2 37.6 14.7 24 14.8 SSE 11 17 6 9 1008.3 1007.7 0.0
24/11:00am 38.0 36.6 14.5 24 14.7 WSW 15 20 8 11 1008.9 1008.3 0.0
24/10:30am 37.4 35.3 14.6 25 14.3 SW 19 30 10 16 1009.4 1008.8 0.0
24/10:00am 36.1 36.1 16.3 31 12.6 WNW 11 19 6 10 1009.7 1009.1 0.0
24/09:30am 35.8 35.7 17.0 32 12.1 WSW 13 22 7 12 1010.1 1009.5 0.0
24/09:00am 35.4 35.6 17.6 35 11.5 WSW 13 20 7 11 1010.4 1009.8 0.0
24/08:30am 34.6 35.0 17.3 35 11.1 WSW 11 17 6 9 1010.6 1010.0 0.0
24/08:00am 33.6 35.0 17.7 38 10.3 WNW 7 13 4 7 1010.5 1009.9 0.0
24/07:30am 32.4 33.5 19.6 46 8.5 WNW 13 17 7 9 1010.5 1009.9 0.0
24/07:00am 31.1 33.5 21.6 57 6.4 NNW 11 15 6 8 1010.4 1009.8 0.0
24/06:30am 29.3 32.8 22.8 68 4.4 N 9 15 5 8 1010.1 1009.5 0.0
24/06:00am 27.7 31.9 23.1 76 3.1 N 6 7 3 4 1010.0 1009.4 0.0
24/05:30am 26.4 30.1 22.3 78 2.8 N 6 7 3 4 1009.5 1008.9 0.0
24/05:00am 25.9 29.0 21.1 75 3.2 NNE 6 7 3 4 1009.3 1008.7 0.0
24/04:30am 26.4 29.7 21.8 76 3.1 N 7 11 4 6 1009.0 1008.4 0.0
24/04:00am 26.0 28.5 21.0 74 3.3 N 9 11 5 6 1008.8 1008.2 0.0
24/03:30am 26.0 28.2 19.6 68 4.1 NNE 7 9 4 5 1008.6 1008.0 0.0
24/03:00am 26.1 27.7 18.2 61 5.0 NNE 7 9 4 5 1008.7 1008.1 0.0
24/02:30am 26.0 26.8 16.3 55 6.0 NNE 7 9 4 5 1008.8 1008.2 0.0
24/02:00am 26.7 27.5 16.3 53 6.4 NE 7 9 4 5 1009.0 1008.4 0.0
24/01:30am 27.1 27.8 16.1 51 6.8 N 7 11 4 6 1009.0 1008.4 0.0
24/01:00am 28.4 29.3 16.7 49 7.3 N 7 11 4 6 1009.2 1008.6 0.0
24/12:30am 28.9 30.0 17.1 49 7.4 N 7 11 4 6 1009.1 1008.5 0.0
24/12:00am 28.3 28.7 16.2 47 7.5 N 9 11 5 6 1009.1 1008.5 0.0
 
Date/Time
WST
Temp
°C
App
Temp
°C
Dew
Point
Rel
Hum
%
Delta-T
°C
Wind Press
QNH
hPa
Press
MSL
hPa
Rain
since 9 am
mm
Dir
 
Spd
km/h
Gust
km/h
Spd
kts
Gust
kts
23/11:30pm 29.1 30.0 16.0 45 8.1 W 6 7 3 4 1009.2 1008.6 0.0
23/11:00pm 30.5 31.3 15.8 41 9.2 WNW 6 9 3 5 1009.4 1008.8 0.0
23/10:30pm 31.6 31.7 15.5 37 10.0 W 9 13 5 7 1009.6 1009.0 0.0
23/10:00pm 32.1 31.9 15.6 37 10.3 W 11 15 6 8 1009.7 1009.1 0.0
23/09:30pm 32.6 31.3 14.7 34 11.0 W 15 20 8 11 1009.4 1008.8 0.0
23/09:00pm 32.8 31.3 16.2 37 10.5 W 19 26 10 14 1009.0 1008.4 0.0
23/08:30pm 33.5 31.9 15.9 34 11.1 W 19 24 10 13 1008.3 1007.7 0.0
23/08:00pm 33.1 35.3 21.9 51 7.7 WNW 13 20 7 11 1008.0 1007.4 0.0
23/07:30pm 32.8 34.6 22.6 55 7.0 NW 17 24 9 13 1007.4 1006.8 0.0
23/07:00pm 33.4 34.5 21.2 48 8.3 NNW 17 24 9 13 1006.9 1006.3 0.0
23/06:30pm 33.9 35.4 20.6 45 8.9 NNW 13 19 7 10 1006.4 1005.8 0.0
23/06:00pm 35.2 35.6 19.9 40 10.2 NW 17 22 9 12 1005.9 1005.3 0.0
23/05:30pm 37.1 36.3 17.1 30 12.9 NW 17 26 9 14 1005.5 1004.9 0.0
23/05:00pm 38.5 37.3 16.2 27 14.4 NW 17 22 9 12 1005.0 1004.4 0.0
23/04:30pm 39.7 39.1 16.6 26 15.0 WNW 15 20 8 11 1004.8 1004.2 0.0
23/04:00pm 39.9 38.1 16.1 24 15.4 NW 20 28 11 15 1004.5 1003.9 0.0
23/03:30pm 40.6 39.6 16.7 24 15.5 NW 17 44 9 24 1004.8 1004.2 0.0
23/03:00pm 39.4 39.2 15.7 24 15.2 NNW 11 20 6 11 1005.1 1004.5 0.0
23/02:30pm 40.9 40.9 16.3 23 15.9 SW 11 17 6 9 1005.3 1004.7 0.0
23/02:00pm 40.1 39.1 15.7 24 15.7 SSW 15 24 8 13 1005.7 1005.1 0.0
23/01:30pm 40.5 40.1 15.3 22 16.1 WSW 11 20 6 11 1006.0 1005.4 0.0
23/01:00pm 39.6 39.0 14.6 23 15.8 NW 11 19 6 10 1006.7 1006.1 0.0
23/12:30pm 39.0 37.6 13.4 22 15.8 NNW 13 22 7 12 1007.2 1006.6 0.0
23/12:00pm 39.5 38.5 12.4 20 16.6 NW 9 22 5 12 1007.8 1007.2 0.0
23/11:30am 38.7 36.0 11.7 20 16.3 WSW 17 26 9 14 1008.3 1007.7 0.0
23/11:00am 38.0 35.7 11.9 21 15.8 WNW 15 20 8 11 1008.8 1008.2 0.0
23/10:30am 38.1 35.7 12.7 22 15.5 W 17 22 9 12 1009.2 1008.6 0.0
23/10:00am 37.2 35.6 15.1 27 13.9 WNW 17 26 9 14 1009.4 1008.8 0.0
23/09:30am 36.2 35.7 17.8 33 12.0 WNW 17 24 9 13 1010.0 1009.4 0.0
23/09:00am 35.2 35.5 18.7 37 10.9 NW 15 24 8 13 1010.2 1009.6 0.0
23/08:30am 33.0 34.5 21.2 50 8.0 NW 15 22 8 12 1010.4 1009.8 0.0
23/08:00am 32.1 34.3 21.9 54 6.9 NNW 13 17 7 9 1010.5 1009.9 0.0
23/07:30am 31.0 33.9 23.9 66 4.9 NNW 15 20 8 11 1010.4 1009.8 0.0
23/07:00am 29.9 33.8 25.4 77 3.2 WNW 15 20 8 11 1010.3 1009.7 0.0
23/06:30am 28.6 33.2 24.8 80 2.7 W 9 17 5 9 1010.3 1009.7 0.0
23/06:00am 27.7 32.4 24.9 85 2.0 WSW 9 15 5 8 1009.9 1009.3 0.0
23/05:30am 25.8 30.8 23.8 89 1.4 S 4 6 2 3 1009.5 1008.9 0.0
23/05:00am 25.2 30.6 23.3 89 1.3 CALM 0 0 0 0 1009.3 1008.7 0.0
23/04:30am 26.3 30.4 24.0 87 1.6 SSW 9 11 5 6 1009.3 1008.7 0.0
23/04:00am 26.5 30.8 24.2 87 1.6 WSW 9 9 5 5 1008.9 1008.3 0.0
23/03:30am 25.7 29.8 23.0 85 1.8 N 6 7 3 4 1008.8 1008.2 0.0
23/03:00am 26.6 31.0 23.5 83 2.1 N 6 7 3 4 1008.6 1008.0 0.0
23/02:30am 27.7 31.8 23.9 80 2.6 N 9 11 5 6 1008.7 1008.1 0.0
23/02:00am 28.2 32.3 24.0 78 2.9 N 9 15 5 8 1008.7 1008.1 0.0
23/01:30am 28.5 32.1 24.3 78 2.9 N 13 20 7 11 1008.9 1008.3 0.0
23/01:00am 28.4 33.0 25.4 84 2.1 N 11 19 6 10 1009.1 1008.5 0.0
23/12:30am 28.5 33.1 25.3 83 2.3 NNE 11 17 6 9 1009.1 1008.5 0.0
23/12:00am 28.7 33.1 25.1 81 2.5 NNE 11 17 6 9 1009.4 1008.8 0.0
 
Date/Time
WST
Temp
°C
App
Temp
°C
Dew
Point
Rel
Hum
%
Delta-T
°C
Wind Press
QNH
hPa
Press
MSL
hPa
Rain
since 9 am
mm
Dir
 
Spd
km/h
Gust
km/h
Spd
kts
Gust
kts
22/11:30pm 28.9 33.8 25.3 81 2.5 NNE 9 13 5 7 1009.5 1008.9 0.0
22/11:00pm 29.0 33.5 24.6 77 3.1 NE 9 13 5 7 1009.4 1008.8 0.0
22/10:30pm 29.7 34.0 24.3 73 3.8 NNE 9 13 5 7 1009.3 1008.7 0.0
22/10:00pm 29.7 33.1 24.6 74 3.6 NE 15 20 8 11 1009.6 1009.0 0.0
22/09:30pm 29.4 33.4 23.1 69 4.3 N 7 9 4 5 1009.0 1008.4 0.0
22/09:00pm 29.3 32.6 21.8 64 5.1 N 7 9 4 5 1008.8 1008.2 0.0
22/08:30pm 30.9 34.7 22.8 62 5.6 NNW 7 9 4 5 1008.6 1008.0 0.0
22/08:00pm 31.9 35.6 22.6 58 6.4 NW 7 9 4 5 1008.4 1007.8 0.0
22/07:30pm 32.6 35.8 22.4 55 7.0 NNW 9 13 5 7 1008.1 1007.5 0.0
22/07:00pm 33.6 36.1 21.7 49 8.1 NW 11 15 6 8 1007.4 1006.8 0.0
22/06:30pm 34.1 35.7 20.8 45 9.0 NW 13 20 7 11 1006.9 1006.3 0.0
22/06:00pm 34.6 35.0 20.6 44 9.4 NW 19 26 10 14 1006.5 1005.9 0.0
22/05:30pm 35.0 35.7 20.5 42 9.8 NW 17 26 9 14 1006.3 1005.7 0.0
22/05:00pm 36.0 35.1 19.0 36 11.3 NW 22 35 12 19 1006.0 1005.4 0.0
22/04:30pm 37.2 34.7 15.1 27 13.9 NW 22 32 12 17 1005.6 1005.0 0.0
22/04:00pm 38.4 35.9 16.1 27 14.3 NW 24 32 13 17 1005.4 1004.8 0.0
22/03:30pm 40.5 40.4 13.9 21 16.7 SSW 7 15 4 8 1005.3 1004.7 0.0
22/03:00pm 39.5 38.4 13.1 21 16.3 N 11 17 6 9 1005.5 1004.9 0.0
22/02:30pm 41.1 41.2 14.4 21 16.9 NW 7 13 4 7 1005.8 1005.2 0.0
22/02:00pm 40.6 40.2 14.0 21 16.7 SE 9 15 5 8 1006.3 1005.7 0.0
22/01:30pm 39.1 39.1 13.5 22 15.9 NE 6 9 3 5 1006.8 1006.2 0.0
22/01:00pm 39.8 39.0 14.1 22 16.1 SE 11 17 6 9 1007.3 1006.7 0.0
22/12:30pm 39.8 38.6 14.1 22 16.1 SW 13 26 7 14 1007.7 1007.1 0.0
22/12:00pm 39.7 39.3 14.0 22 16.1 SSW 9 20 5 11 1008.2 1007.6 0.0
22/11:30am 39.4 37.9 13.0 21 16.3 SSE 13 26 7 14 1008.6 1008.0 0.0
22/11:00am 38.9 37.9 14.7 24 15.3 SSW 13 19 7 10 1009.1 1008.5 0.0
22/10:30am 38.1 36.9 14.0 24 15.0 SSW 13 20 7 11 1009.6 1009.0 0.0
22/10:00am 37.5 35.9 12.8 22 15.1 SW 13 20 7 11 1010.0 1009.4 0.0
22/09:30am 36.6 35.8 15.1 27 13.5 WSW 13 22 7 12 1010.1 1009.5 0.0
22/09:00am 35.2 35.3 15.5 30 12.4 SW 9 15 5 8 1010.5 1009.9 0.0

Other Formats:

Comma delimited format used in spreadsheet applications
http://www.bom.gov.au/fwo/IDW60801/IDW60801.94204.axf

JavaScript Object Notation format (JSON) in row-major order
http://www.bom.gov.au/fwo/IDW60801/IDW60801.94204.json